sensor_id;sensor_type;location;lat;lon;timestamp;P1;durP1;ratioP1;P2;durP2;ratioP2
14760;SDS011;7472;45.396;5.272;2023-04-03T00:00:30;4.75;;;3.45;;
14760;SDS011;7472;45.396;5.272;2023-04-03T00:02:58;3.60;;;3.13;;
14760;SDS011;7472;45.396;5.272;2023-04-03T00:05:25;5.68;;;3.90;;
14760;SDS011;7472;45.396;5.272;2023-04-03T00:07:53;3.78;;;3.20;;
14760;SDS011;7472;45.396;5.272;2023-04-03T00:10:21;5.93;;;4.05;;
14760;SDS011;7472;45.396;5.272;2023-04-03T00:12:49;5.28;;;3.33;;
14760;SDS011;7472;45.396;5.272;2023-04-03T00:15:16;4.55;;;3.65;;
14760;SDS011;7472;45.396;5.272;2023-04-03T00:17:44;5.18;;;4.40;;
14760;SDS011;7472;45.396;5.272;2023-04-03T00:20:11;5.68;;;3.40;;
14760;SDS011;7472;45.396;5.272;2023-04-03T00:22:39;5.20;;;3.85;;
14760;SDS011;7472;45.396;5.272;2023-04-03T00:25:07;5.68;;;4.60;;
14760;SDS011;7472;45.396;5.272;2023-04-03T00:27:36;6.78;;;3.95;;
14760;SDS011;7472;45.396;5.272;2023-04-03T00:30:05;5.43;;;3.90;;
14760;SDS011;7472;45.396;5.272;2023-04-03T00:32:32;5.05;;;3.92;;
14760;SDS011;7472;45.396;5.272;2023-04-03T00:35:00;6.55;;;4.10;;
14760;SDS011;7472;45.396;5.272;2023-04-03T00:37:27;4.15;;;3.75;;
14760;SDS011;7472;45.396;5.272;2023-04-03T00:39:55;4.60;;;4.20;;
14760;SDS011;7472;45.396;5.272;2023-04-03T00:42:23;5.18;;;4.00;;
14760;SDS011;7472;45.396;5.272;2023-04-03T00:47:38;5.45;;;3.22;;
14760;SDS011;7472;45.396;5.272;2023-04-03T00:50:06;4.50;;;4.10;;
14760;SDS011;7472;45.396;5.272;2023-04-03T00:52:33;4.18;;;2.95;;
14760;SDS011;7472;45.396;5.272;2023-04-03T00:55:03;3.92;;;3.35;;
14760;SDS011;7472;45.396;5.272;2023-04-03T00:57:30;4.63;;;3.60;;
14760;SDS011;7472;45.396;5.272;2023-04-03T00:59:59;3.63;;;2.72;;
14760;SDS011;7472;45.396;5.272;2023-04-03T01:02:28;4.10;;;3.42;;
14760;SDS011;7472;45.396;5.272;2023-04-03T01:04:57;5.57;;;3.65;;
14760;SDS011;7472;45.396;5.272;2023-04-03T01:07:26;4.63;;;3.65;;
14760;SDS011;7472;45.396;5.272;2023-04-03T01:09:56;6.18;;;4.00;;
14760;SDS011;7472;45.396;5.272;2023-04-03T01:12:24;4.97;;;3.67;;
14760;SDS011;7472;45.396;5.272;2023-04-03T01:14:53;6.18;;;4.18;;
14760;SDS011;7472;45.396;5.272;2023-04-03T01:17:24;5.50;;;4.68;;
14760;SDS011;7472;45.396;5.272;2023-04-03T01:19:56;4.13;;;3.60;;
14760;SDS011;7472;45.396;5.272;2023-04-03T01:22:25;4.35;;;3.95;;
14760;SDS011;7472;45.396;5.272;2023-04-03T01:24:57;6.00;;;4.03;;
14760;SDS011;7472;45.396;5.272;2023-04-03T01:27:24;3.53;;;3.22;;
14760;SDS011;7472;45.396;5.272;2023-04-03T01:29:52;5.53;;;4.07;;
14760;SDS011;7472;45.396;5.272;2023-04-03T01:32:21;5.18;;;4.07;;
14760;SDS011;7472;45.396;5.272;2023-04-03T01:34:48;6.50;;;3.97;;
14760;SDS011;7472;45.396;5.272;2023-04-03T01:37:16;7.20;;;5.07;;
14760;SDS011;7472;45.396;5.272;2023-04-03T01:39:43;7.22;;;4.30;;
14760;SDS011;7472;45.396;5.272;2023-04-03T01:42:10;8.30;;;4.07;;
14760;SDS011;7472;45.396;5.272;2023-04-03T01:44:38;5.97;;;4.57;;
14760;SDS011;7472;45.396;5.272;2023-04-03T01:47:05;4.55;;;3.83;;
14760;SDS011;7472;45.396;5.272;2023-04-03T01:49:34;5.28;;;4.63;;
14760;SDS011;7472;45.396;5.272;2023-04-03T01:52:02;5.47;;;4.70;;
14760;SDS011;7472;45.396;5.272;2023-04-03T01:54:29;6.50;;;4.60;;
14760;SDS011;7472;45.396;5.272;2023-04-03T01:56:57;4.88;;;4.38;;
14760;SDS011;7472;45.396;5.272;2023-04-03T01:59:24;6.32;;;4.50;;
14760;SDS011;7472;45.396;5.272;2023-04-03T02:01:51;5.05;;;3.75;;
14760;SDS011;7472;45.396;5.272;2023-04-03T02:04:19;6.53;;;4.53;;
14760;SDS011;7472;45.396;5.272;2023-04-03T02:06:48;4.85;;;3.67;;
14760;SDS011;7472;45.396;5.272;2023-04-03T02:09:15;4.50;;;4.10;;
14760;SDS011;7472;45.396;5.272;2023-04-03T02:11:42;4.18;;;3.72;;
14760;SDS011;7472;45.396;5.272;2023-04-03T02:14:10;4.15;;;3.35;;
14760;SDS011;7472;45.396;5.272;2023-04-03T02:16:37;4.85;;;3.85;;
14760;SDS011;7472;45.396;5.272;2023-04-03T02:19:05;7.60;;;4.25;;
14760;SDS011;7472;45.396;5.272;2023-04-03T02:21:33;6.63;;;4.45;;
14760;SDS011;7472;45.396;5.272;2023-04-03T02:24:01;6.90;;;4.75;;
14760;SDS011;7472;45.396;5.272;2023-04-03T02:26:29;5.05;;;4.55;;
14760;SDS011;7472;45.396;5.272;2023-04-03T02:28:56;4.38;;;3.70;;
14760;SDS011;7472;45.396;5.272;2023-04-03T02:31:24;5.38;;;4.40;;
14760;SDS011;7472;45.396;5.272;2023-04-03T02:33:51;4.20;;;3.22;;
14760;SDS011;7472;45.396;5.272;2023-04-03T02:36:18;4.95;;;4.30;;
14760;SDS011;7472;45.396;5.272;2023-04-03T02:38:46;5.38;;;4.53;;
14760;SDS011;7472;45.396;5.272;2023-04-03T02:41:15;4.25;;;3.85;;
14760;SDS011;7472;45.396;5.272;2023-04-03T02:43:42;6.80;;;4.53;;
14760;SDS011;7472;45.396;5.272;2023-04-03T02:46:09;5.68;;;4.80;;
14760;SDS011;7472;45.396;5.272;2023-04-03T02:48:39;5.47;;;4.68;;
14760;SDS011;7472;45.396;5.272;2023-04-03T02:51:06;4.32;;;3.88;;
14760;SDS011;7472;45.396;5.272;2023-04-03T02:53:33;5.68;;;5.13;;
14760;SDS011;7472;45.396;5.272;2023-04-03T02:56:01;5.80;;;5.07;;
14760;SDS011;7472;45.396;5.272;2023-04-03T02:58:30;6.95;;;5.20;;
14760;SDS011;7472;45.396;5.272;2023-04-03T03:00:57;7.25;;;6.18;;
14760;SDS011;7472;45.396;5.272;2023-04-03T03:03:24;5.45;;;4.95;;
14760;SDS011;7472;45.396;5.272;2023-04-03T03:06:00;6.07;;;3.42;;
14760;SDS011;7472;45.396;5.272;2023-04-03T03:08:27;5.72;;;4.38;;
14760;SDS011;7472;45.396;5.272;2023-04-03T03:10:54;4.97;;;4.35;;
14760;SDS011;7472;45.396;5.272;2023-04-03T03:13:22;6.13;;;5.20;;
14760;SDS011;7472;45.396;5.272;2023-04-03T03:15:51;8.57;;;4.90;;
14760;SDS011;7472;45.396;5.272;2023-04-03T03:18:18;5.97;;;5.10;;
14760;SDS011;7472;45.396;5.272;2023-04-03T03:20:46;6.05;;;4.90;;
14760;SDS011;7472;45.396;5.272;2023-04-03T03:23:13;9.90;;;5.18;;
14760;SDS011;7472;45.396;5.272;2023-04-03T03:25:41;5.60;;;4.80;;
14760;SDS011;7472;45.396;5.272;2023-04-03T03:28:08;6.43;;;5.43;;
14760;SDS011;7472;45.396;5.272;2023-04-03T03:30:36;5.18;;;4.68;;
14760;SDS011;7472;45.396;5.272;2023-04-03T03:33:05;5.28;;;4.78;;
14760;SDS011;7472;45.396;5.272;2023-04-03T03:35:33;5.07;;;4.57;;
14760;SDS011;7472;45.396;5.272;2023-04-03T03:38:00;7.07;;;4.40;;
14760;SDS011;7472;45.396;5.272;2023-04-03T03:40:28;6.80;;;4.68;;
14760;SDS011;7472;45.396;5.272;2023-04-03T03:42:55;6.18;;;5.35;;
14760;SDS011;7472;45.396;5.272;2023-04-03T03:45:23;5.57;;;4.95;;
14760;SDS011;7472;45.396;5.272;2023-04-03T03:47:50;6.15;;;5.55;;
14760;SDS011;7472;45.396;5.272;2023-04-03T03:50:19;6.63;;;5.18;;
14760;SDS011;7472;45.396;5.272;2023-04-03T03:52:46;7.15;;;4.72;;
14760;SDS011;7472;45.396;5.272;2023-04-03T03:55:14;6.72;;;5.85;;
14760;SDS011;7472;45.396;5.272;2023-04-03T03:57:41;5.20;;;4.70;;
14760;SDS011;7472;45.396;5.272;2023-04-03T04:00:09;4.88;;;4.10;;
14760;SDS011;7472;45.396;5.272;2023-04-03T04:02:37;6.15;;;5.55;;
14760;SDS011;7472;45.396;5.272;2023-04-03T04:05:04;6.13;;;5.47;;
14760;SDS011;7472;45.396;5.272;2023-04-03T04:07:33;6.75;;;5.60;;
14760;SDS011;7472;45.396;5.272;2023-04-03T04:10:00;6.15;;;5.55;;
14760;SDS011;7472;45.396;5.272;2023-04-03T04:12:28;9.00;;;5.55;;
14760;SDS011;7472;45.396;5.272;2023-04-03T04:14:55;6.25;;;5.65;;
14760;SDS011;7472;45.396;5.272;2023-04-03T04:17:23;5.85;;;5.20;;
14760;SDS011;7472;45.396;5.272;2023-04-03T04:19:50;5.72;;;5.15;;
14760;SDS011;7472;45.396;5.272;2023-04-03T04:22:17;5.50;;;4.90;;
14760;SDS011;7472;45.396;5.272;2023-04-03T04:24:46;4.95;;;4.30;;
14760;SDS011;7472;45.396;5.272;2023-04-03T04:27:13;4.25;;;3.85;;
14760;SDS011;7472;45.396;5.272;2023-04-03T04:29:41;4.63;;;4.22;;
14760;SDS011;7472;45.396;5.272;2023-04-03T04:32:09;4.15;;;3.78;;
14760;SDS011;7472;45.396;5.272;2023-04-03T04:34:36;4.25;;;3.88;;
14760;SDS011;7472;45.396;5.272;2023-04-03T04:37:04;4.13;;;3.75;;
14760;SDS011;7472;45.396;5.272;2023-04-03T04:39:31;2.90;;;2.60;;
14760;SDS011;7472;45.396;5.272;2023-04-03T04:42:00;3.08;;;2.50;;
14760;SDS011;7472;45.396;5.272;2023-04-03T04:44:27;3.42;;;3.13;;
14760;SDS011;7472;45.396;5.272;2023-04-03T04:46:55;4.35;;;3.10;;
14760;SDS011;7472;45.396;5.272;2023-04-03T04:49:22;4.18;;;3.75;;
14760;SDS011;7472;45.396;5.272;2023-04-03T04:51:49;4.38;;;3.97;;
14760;SDS011;7472;45.396;5.272;2023-04-03T04:54:17;3.53;;;3.22;;
14760;SDS011;7472;45.396;5.272;2023-04-03T04:56:44;3.80;;;3.50;;
14760;SDS011;7472;45.396;5.272;2023-04-03T04:59:13;5.75;;;3.55;;
14760;SDS011;7472;45.396;5.272;2023-04-03T05:01:40;4.75;;;4.10;;
14760;SDS011;7472;45.396;5.272;2023-04-03T05:04:08;3.60;;;3.30;;
14760;SDS011;7472;45.396;5.272;2023-04-03T05:06:37;4.97;;;4.53;;
14760;SDS011;7472;45.396;5.272;2023-04-03T05:09:05;3.85;;;3.45;;
14760;SDS011;7472;45.396;5.272;2023-04-03T05:11:32;4.45;;;4.05;;
14760;SDS011;7472;45.396;5.272;2023-04-03T05:13:59;5.32;;;4.82;;
14760;SDS011;7472;45.396;5.272;2023-04-03T05:16:28;5.57;;;5.07;;
14760;SDS011;7472;45.396;5.272;2023-04-03T05:18:56;6.22;;;5.32;;
14760;SDS011;7472;45.396;5.272;2023-04-03T05:21:23;5.32;;;4.82;;
14760;SDS011;7472;45.396;5.272;2023-04-03T05:23:53;5.68;;;5.15;;
14760;SDS011;7472;45.396;5.272;2023-04-03T05:26:20;4.53;;;3.83;;
14760;SDS011;7472;45.396;5.272;2023-04-03T05:28:47;4.68;;;3.67;;
14760;SDS011;7472;45.396;5.272;2023-04-03T05:31:15;6.72;;;4.97;;
14760;SDS011;7472;45.396;5.272;2023-04-03T05:33:43;6.40;;;5.07;;
14760;SDS011;7472;45.396;5.272;2023-04-03T05:36:11;5.30;;;4.63;;
14760;SDS011;7472;45.396;5.272;2023-04-03T05:38:39;5.05;;;4.55;;
14760;SDS011;7472;45.396;5.272;2023-04-03T05:41:06;5.57;;;5.07;;
14760;SDS011;7472;45.396;5.272;2023-04-03T05:43:34;5.40;;;4.53;;
14760;SDS011;7472;45.396;5.272;2023-04-03T05:46:02;5.43;;;4.93;;
14760;SDS011;7472;45.396;5.272;2023-04-03T05:48:30;6.43;;;5.82;;
14760;SDS011;7472;45.396;5.272;2023-04-03T05:50:59;6.75;;;6.15;;
14760;SDS011;7472;45.396;5.272;2023-04-03T05:53:27;6.60;;;5.93;;
14760;SDS011;7472;45.396;5.272;2023-04-03T05:55:55;7.07;;;6.00;;
14760;SDS011;7472;45.396;5.272;2023-04-03T05:58:23;5.60;;;4.85;;
14760;SDS011;7472;45.396;5.272;2023-04-03T06:00:50;4.88;;;4.45;;
14760;SDS011;7472;45.396;5.272;2023-04-03T06:03:17;6.07;;;5.00;;
14760;SDS011;7472;45.396;5.272;2023-04-03T06:05:45;5.22;;;4.75;;
14760;SDS011;7472;45.396;5.272;2023-04-03T06:08:14;5.60;;;4.78;;
14760;SDS011;7472;45.396;5.272;2023-04-03T06:10:41;5.00;;;4.60;;
14760;SDS011;7472;45.396;5.272;2023-04-03T06:13:09;5.55;;;5.00;;
14760;SDS011;7472;45.396;5.272;2023-04-03T06:15:36;4.78;;;4.35;;
14760;SDS011;7472;45.396;5.272;2023-04-03T06:18:04;4.07;;;3.67;;
14760;SDS011;7472;45.396;5.272;2023-04-03T06:20:32;4.45;;;4.05;;
14760;SDS011;7472;45.396;5.272;2023-04-03T06:22:59;4.00;;;3.58;;
14760;SDS011;7472;45.396;5.272;2023-04-03T06:25:28;5.20;;;4.72;;
14760;SDS011;7472;45.396;5.272;2023-04-03T06:27:56;6.05;;;5.28;;
14760;SDS011;7472;45.396;5.272;2023-04-03T06:30:24;5.13;;;4.68;;
14760;SDS011;7472;45.396;5.272;2023-04-03T06:32:52;5.95;;;4.40;;
14760;SDS011;7472;45.396;5.272;2023-04-03T06:35:20;6.28;;;5.68;;
14760;SDS011;7472;45.396;5.272;2023-04-03T06:37:49;5.57;;;5.07;;
14760;SDS011;7472;45.396;5.272;2023-04-03T06:40:18;6.82;;;6.22;;
14760;SDS011;7472;45.396;5.272;2023-04-03T06:42:48;5.85;;;4.70;;
14760;SDS011;7472;45.396;5.272;2023-04-03T06:45:16;6.63;;;5.97;;
14760;SDS011;7472;45.396;5.272;2023-04-03T06:47:43;6.25;;;5.65;;
14760;SDS011;7472;45.396;5.272;2023-04-03T06:50:11;6.25;;;5.38;;
14760;SDS011;7472;45.396;5.272;2023-04-03T06:52:40;6.97;;;6.28;;
14760;SDS011;7472;45.396;5.272;2023-04-03T06:55:08;6.03;;;5.43;;
14760;SDS011;7472;45.396;5.272;2023-04-03T06:57:36;6.85;;;6.25;;
14760;SDS011;7472;45.396;5.272;2023-04-03T07:00:06;5.65;;;5.13;;
14760;SDS011;7472;45.396;5.272;2023-04-03T07:02:35;6.82;;;6.20;;
14760;SDS011;7472;45.396;5.272;2023-04-03T07:05:02;7.03;;;6.28;;
14760;SDS011;7472;45.396;5.272;2023-04-03T07:07:30;6.60;;;5.93;;
14760;SDS011;7472;45.396;5.272;2023-04-03T07:09:59;6.47;;;5.88;;
14760;SDS011;7472;45.396;5.272;2023-04-03T07:12:26;7.57;;;6.78;;
14760;SDS011;7472;45.396;5.272;2023-04-03T07:14:54;6.47;;;5.88;;
14760;SDS011;7472;45.396;5.272;2023-04-03T07:17:22;6.53;;;5.93;;
14760;SDS011;7472;45.396;5.272;2023-04-03T07:19:50;5.20;;;4.47;;
14760;SDS011;7472;45.396;5.272;2023-04-03T07:22:17;5.22;;;4.32;;
14760;SDS011;7472;45.396;5.272;2023-04-03T07:24:45;6.13;;;5.20;;
14760;SDS011;7472;45.396;5.272;2023-04-03T07:27:13;6.13;;;5.10;;
14760;SDS011;7472;45.396;5.272;2023-04-03T07:29:40;8.00;;;6.07;;
14760;SDS011;7472;45.396;5.272;2023-04-03T07:32:08;5.90;;;5.00;;
14760;SDS011;7472;45.396;5.272;2023-04-03T07:34:36;6.40;;;5.40;;
14760;SDS011;7472;45.396;5.272;2023-04-03T07:37:04;6.95;;;5.85;;
14760;SDS011;7472;45.396;5.272;2023-04-03T07:39:32;5.80;;;5.18;;
14760;SDS011;7472;45.396;5.272;2023-04-03T07:41:59;8.43;;;6.32;;
14760;SDS011;7472;45.396;5.272;2023-04-03T07:44:27;7.50;;;6.80;;
14760;SDS011;7472;45.396;5.272;2023-04-03T07:46:55;20.65;;;16.85;;
14760;SDS011;7472;45.396;5.272;2023-04-03T07:49:22;8.77;;;7.88;;
14760;SDS011;7472;45.396;5.272;2023-04-03T07:51:52;7.90;;;6.38;;
14760;SDS011;7472;45.396;5.272;2023-04-03T07:54:20;8.40;;;7.40;;
14760;SDS011;7472;45.396;5.272;2023-04-03T07:56:47;11.57;;;10.48;;
14760;SDS011;7472;45.396;5.272;2023-04-03T07:59:15;4.53;;;3.05;;
14760;SDS011;7472;45.396;5.272;2023-04-03T08:01:42;7.75;;;5.90;;
14760;SDS011;7472;45.396;5.272;2023-04-03T08:04:10;8.98;;;7.93;;
14760;SDS011;7472;45.396;5.272;2023-04-03T08:06:37;10.80;;;9.70;;
14760;SDS011;7472;45.396;5.272;2023-04-03T08:09:06;9.10;;;7.95;;
14760;SDS011;7472;45.396;5.272;2023-04-03T08:11:34;8.98;;;7.85;;
14760;SDS011;7472;45.396;5.272;2023-04-03T08:14:01;8.95;;;7.25;;
14760;SDS011;7472;45.396;5.272;2023-04-03T08:16:29;8.45;;;7.05;;
14760;SDS011;7472;45.396;5.272;2023-04-03T08:18:56;11.20;;;8.80;;
14760;SDS011;7472;45.396;5.272;2023-04-03T08:21:24;12.93;;;10.85;;
14760;SDS011;7472;45.396;5.272;2023-04-03T08:23:52;13.40;;;12.00;;
14760;SDS011;7472;45.396;5.272;2023-04-03T08:26:21;13.70;;;10.52;;
14760;SDS011;7472;45.396;5.272;2023-04-03T08:28:48;13.65;;;11.98;;
14760;SDS011;7472;45.396;5.272;2023-04-03T08:31:17;14.45;;;9.35;;
14760;SDS011;7472;45.396;5.272;2023-04-03T08:33:45;13.02;;;10.43;;
14760;SDS011;7472;45.396;5.272;2023-04-03T08:36:16;13.10;;;9.75;;
14760;SDS011;7472;45.396;5.272;2023-04-03T08:38:44;14.10;;;10.55;;
14760;SDS011;7472;45.396;5.272;2023-04-03T08:41:14;11.63;;;9.13;;
14760;SDS011;7472;45.396;5.272;2023-04-03T08:43:48;14.23;;;12.68;;
14760;SDS011;7472;45.396;5.272;2023-04-03T08:46:20;14.73;;;12.52;;
14760;SDS011;7472;45.396;5.272;2023-04-03T08:48:49;15.50;;;13.32;;
14760;SDS011;7472;45.396;5.272;2023-04-03T08:51:18;15.68;;;12.93;;
14760;SDS011;7472;45.396;5.272;2023-04-03T08:53:49;12.02;;;9.07;;
14760;SDS011;7472;45.396;5.272;2023-04-03T08:56:19;13.88;;;12.25;;
14760;SDS011;7472;45.396;5.272;2023-04-03T08:58:50;14.30;;;12.55;;
14760;SDS011;7472;45.396;5.272;2023-04-03T09:01:20;13.82;;;11.88;;
14760;SDS011;7472;45.396;5.272;2023-04-03T09:03:48;13.30;;;11.00;;
14760;SDS011;7472;45.396;5.272;2023-04-03T09:06:16;12.60;;;11.25;;
14760;SDS011;7472;45.396;5.272;2023-04-03T09:08:46;14.23;;;11.10;;
14760;SDS011;7472;45.396;5.272;2023-04-03T09:11:16;18.80;;;12.30;;
14760;SDS011;7472;45.396;5.272;2023-04-03T09:13:49;13.50;;;8.38;;
14760;SDS011;7472;45.396;5.272;2023-04-03T09:16:25;16.25;;;13.40;;
14760;SDS011;7472;45.396;5.272;2023-04-03T09:18:57;12.75;;;9.82;;
14760;SDS011;7472;45.396;5.272;2023-04-03T09:21:27;15.93;;;12.73;;
14760;SDS011;7472;45.396;5.272;2023-04-03T09:23:57;13.68;;;11.68;;
14760;SDS011;7472;45.396;5.272;2023-04-03T09:26:26;14.00;;;10.43;;
14760;SDS011;7472;45.396;5.272;2023-04-03T09:28:57;13.20;;;11.43;;
14760;SDS011;7472;45.396;5.272;2023-04-03T09:31:27;15.40;;;12.48;;
14760;SDS011;7472;45.396;5.272;2023-04-03T09:33:56;13.85;;;11.85;;
14760;SDS011;7472;45.396;5.272;2023-04-03T09:36:38;14.60;;;11.75;;
14760;SDS011;7472;45.396;5.272;2023-04-03T09:39:07;13.95;;;11.63;;
14760;SDS011;7472;45.396;5.272;2023-04-03T09:41:36;11.80;;;10.35;;
14760;SDS011;7472;45.396;5.272;2023-04-03T09:44:17;11.80;;;9.43;;
14760;SDS011;7472;45.396;5.272;2023-04-03T09:46:47;12.98;;;11.05;;
14760;SDS011;7472;45.396;5.272;2023-04-03T09:49:14;11.27;;;9.50;;
14760;SDS011;7472;45.396;5.272;2023-04-03T09:51:42;10.88;;;9.77;;
14760;SDS011;7472;45.396;5.272;2023-04-03T09:54:30;10.82;;;9.55;;
14760;SDS011;7472;45.396;5.272;2023-04-03T09:56:58;10.43;;;9.32;;
14760;SDS011;7472;45.396;5.272;2023-04-03T09:59:29;11.05;;;9.57;;
14760;SDS011;7472;45.396;5.272;2023-04-03T10:01:59;12.77;;;10.65;;
14760;SDS011;7472;45.396;5.272;2023-04-03T10:04:28;12.45;;;10.25;;
14760;SDS011;7472;45.396;5.272;2023-04-03T10:07:03;12.48;;;10.35;;
14760;SDS011;7472;45.396;5.272;2023-04-03T10:09:31;12.85;;;10.73;;
14760;SDS011;7472;45.396;5.272;2023-04-03T10:12:00;11.85;;;9.30;;
14760;SDS011;7472;45.396;5.272;2023-04-03T10:14:31;12.07;;;10.82;;
14760;SDS011;7472;45.396;5.272;2023-04-03T10:17:02;11.60;;;10.27;;
14760;SDS011;7472;45.396;5.272;2023-04-03T10:19:34;11.88;;;10.68;;
14760;SDS011;7472;45.396;5.272;2023-04-03T10:22:04;12.32;;;11.13;;
14760;SDS011;7472;45.396;5.272;2023-04-03T10:24:39;12.07;;;9.85;;
14760;SDS011;7472;45.396;5.272;2023-04-03T10:27:12;11.95;;;10.63;;
14760;SDS011;7472;45.396;5.272;2023-04-03T10:29:45;12.93;;;10.85;;
14760;SDS011;7472;45.396;5.272;2023-04-03T10:35:07;11.68;;;10.48;;
14760;SDS011;7472;45.396;5.272;2023-04-03T10:37:38;6.85;;;6.00;;
14760;SDS011;7472;45.396;5.272;2023-04-03T10:40:14;13.18;;;11.88;;
14760;SDS011;7472;45.396;5.272;2023-04-03T10:42:43;13.18;;;8.90;;
14760;SDS011;7472;45.396;5.272;2023-04-03T10:45:20;13.05;;;11.43;;
14760;SDS011;7472;45.396;5.272;2023-04-03T10:47:52;13.13;;;11.75;;
14760;SDS011;7472;45.396;5.272;2023-04-03T10:53:04;13.90;;;12.00;;
14760;SDS011;7472;45.396;5.272;2023-04-03T10:55:36;13.52;;;11.35;;
14760;SDS011;7472;45.396;5.272;2023-04-03T10:58:05;13.88;;;11.15;;
14760;SDS011;7472;45.396;5.272;2023-04-03T11:00:38;12.10;;;9.82;;
14760;SDS011;7472;45.396;5.272;2023-04-03T11:03:08;8.27;;;6.63;;
14760;SDS011;7472;45.396;5.272;2023-04-03T11:05:39;12.40;;;11.07;;
14760;SDS011;7472;45.396;5.272;2023-04-03T11:08:11;8.68;;;6.80;;
14760;SDS011;7472;45.396;5.272;2023-04-03T11:10:41;9.40;;;8.43;;
14760;SDS011;7472;45.396;5.272;2023-04-03T11:13:11;10.95;;;9.02;;
14760;SDS011;7472;45.396;5.272;2023-04-03T11:15:40;7.28;;;6.43;;
14760;SDS011;7472;45.396;5.272;2023-04-03T11:18:10;9.65;;;8.60;;
14760;SDS011;7472;45.396;5.272;2023-04-03T11:20:38;12.13;;;9.98;;
14760;SDS011;7472;45.396;5.272;2023-04-03T11:23:11;12.52;;;11.13;;
14760;SDS011;7472;45.396;5.272;2023-04-03T11:25:40;19.52;;;11.57;;
14760;SDS011;7472;45.396;5.272;2023-04-03T11:28:11;12.30;;;10.52;;
14760;SDS011;7472;45.396;5.272;2023-04-03T11:30:42;13.65;;;12.30;;
14760;SDS011;7472;45.396;5.272;2023-04-03T11:33:15;10.23;;;7.53;;
14760;SDS011;7472;45.396;5.272;2023-04-03T11:35:44;12.00;;;10.68;;
14760;SDS011;7472;45.396;5.272;2023-04-03T11:38:14;9.95;;;8.95;;
14760;SDS011;7472;45.396;5.272;2023-04-03T11:40:45;11.70;;;10.05;;
14760;SDS011;7472;45.396;5.272;2023-04-03T11:43:20;12.25;;;9.85;;
14760;SDS011;7472;45.396;5.272;2023-04-03T11:45:53;12.90;;;11.52;;
14760;SDS011;7472;45.396;5.272;2023-04-03T11:53:51;8.88;;;7.97;;
14760;SDS011;7472;45.396;5.272;2023-04-03T11:56:29;14.73;;;11.13;;
14760;SDS011;7472;45.396;5.272;2023-04-03T11:59:16;11.85;;;10.73;;
14760;SDS011;7472;45.396;5.272;2023-04-03T12:01:50;13.55;;;11.10;;
14760;SDS011;7472;45.396;5.272;2023-04-03T12:04:18;12.15;;;11.00;;
14760;SDS011;7472;45.396;5.272;2023-04-03T12:06:49;10.35;;;9.32;;
14760;SDS011;7472;45.396;5.272;2023-04-03T12:09:24;11.25;;;10.25;;
14760;SDS011;7472;45.396;5.272;2023-04-03T12:11:52;12.32;;;10.35;;
14760;SDS011;7472;45.396;5.272;2023-04-03T12:14:21;12.02;;;10.98;;
14760;SDS011;7472;45.396;5.272;2023-04-03T12:16:50;8.10;;;6.60;;
14760;SDS011;7472;45.396;5.272;2023-04-03T12:19:33;11.05;;;9.98;;
14760;SDS011;7472;45.396;5.272;2023-04-03T12:24:47;10.25;;;9.10;;
14760;SDS011;7472;45.396;5.272;2023-04-03T12:27:26;12.50;;;10.52;;
14760;SDS011;7472;45.396;5.272;2023-04-03T12:29:55;11.95;;;10.75;;
14760;SDS011;7472;45.396;5.272;2023-04-03T12:32:40;11.15;;;9.98;;
14760;SDS011;7472;45.396;5.272;2023-04-03T12:35:10;12.57;;;10.85;;
14760;SDS011;7472;45.396;5.272;2023-04-03T12:37:49;10.68;;;9.63;;
14760;SDS011;7472;45.396;5.272;2023-04-03T12:40:24;11.70;;;7.68;;
14760;SDS011;7472;45.396;5.272;2023-04-03T12:43:05;11.48;;;10.27;;
14760;SDS011;7472;45.396;5.272;2023-04-03T12:45:39;10.10;;;9.15;;
14760;SDS011;7472;45.396;5.272;2023-04-03T12:48:11;11.02;;;8.52;;
14760;SDS011;7472;45.396;5.272;2023-04-03T12:50:42;9.60;;;8.27;;
14760;SDS011;7472;45.396;5.272;2023-04-03T12:53:11;9.43;;;7.45;;
14760;SDS011;7472;45.396;5.272;2023-04-03T12:55:40;9.15;;;8.27;;
14760;SDS011;7472;45.396;5.272;2023-04-03T12:58:14;10.90;;;9.75;;
14760;SDS011;7472;45.396;5.272;2023-04-03T13:00:43;12.52;;;11.32;;
14760;SDS011;7472;45.396;5.272;2023-04-03T13:03:21;9.93;;;8.70;;
14760;SDS011;7472;45.396;5.272;2023-04-03T13:05:49;11.60;;;10.50;;
14760;SDS011;7472;45.396;5.272;2023-04-03T13:08:16;13.02;;;11.73;;
14760;SDS011;7472;45.396;5.272;2023-04-03T13:10:50;10.80;;;9.70;;
14760;SDS011;7472;45.396;5.272;2023-04-03T13:13:19;9.02;;;8.23;;
14760;SDS011;7472;45.396;5.272;2023-04-03T13:15:48;11.85;;;9.02;;
14760;SDS011;7472;45.396;5.272;2023-04-03T13:18:26;11.35;;;10.25;;
14760;SDS011;7472;45.396;5.272;2023-04-03T13:20:56;10.02;;;9.00;;
14760;SDS011;7472;45.396;5.272;2023-04-03T13:23:24;8.73;;;7.75;;
14760;SDS011;7472;45.396;5.272;2023-04-03T13:25:52;8.38;;;5.93;;
14760;SDS011;7472;45.396;5.272;2023-04-03T13:28:20;9.85;;;7.13;;
14760;SDS011;7472;45.396;5.272;2023-04-03T13:30:56;9.98;;;9.00;;
14760;SDS011;7472;45.396;5.272;2023-04-03T13:33:27;10.48;;;9.32;;
14760;SDS011;7472;45.396;5.272;2023-04-03T13:35:57;12.05;;;10.18;;
14760;SDS011;7472;45.396;5.272;2023-04-03T13:38:26;11.98;;;10.35;;
14760;SDS011;7472;45.396;5.272;2023-04-03T13:40:57;12.55;;;10.63;;
14760;SDS011;7472;45.396;5.272;2023-04-03T13:43:26;11.27;;;10.27;;
14760;SDS011;7472;45.396;5.272;2023-04-03T13:45:56;12.23;;;9.95;;
14760;SDS011;7472;45.396;5.272;2023-04-03T13:48:23;10.77;;;9.75;;
14760;SDS011;7472;45.396;5.272;2023-04-03T13:50:56;10.35;;;9.35;;
14760;SDS011;7472;45.396;5.272;2023-04-03T13:53:24;10.75;;;9.73;;
14760;SDS011;7472;45.396;5.272;2023-04-03T13:55:56;9.75;;;8.73;;
14760;SDS011;7472;45.396;5.272;2023-04-03T13:58:24;10.35;;;9.35;;
14760;SDS011;7472;45.396;5.272;2023-04-03T14:00:53;6.85;;;5.28;;
14760;SDS011;7472;45.396;5.272;2023-04-03T14:03:21;8.95;;;7.97;;
14760;SDS011;7472;45.396;5.272;2023-04-03T14:05:49;10.82;;;7.93;;
14760;SDS011;7472;45.396;5.272;2023-04-03T14:08:18;10.05;;;9.02;;
14760;SDS011;7472;45.396;5.272;2023-04-03T14:10:46;9.52;;;8.25;;
14760;SDS011;7472;45.396;5.272;2023-04-03T14:13:15;8.93;;;7.65;;
14760;SDS011;7472;45.396;5.272;2023-04-03T14:15:43;9.70;;;8.73;;
14760;SDS011;7472;45.396;5.272;2023-04-03T14:18:13;9.20;;;8.30;;
14760;SDS011;7472;45.396;5.272;2023-04-03T14:20:40;9.88;;;8.90;;
14760;SDS011;7472;45.396;5.272;2023-04-03T14:23:08;7.05;;;6.38;;
14760;SDS011;7472;45.396;5.272;2023-04-03T14:25:37;8.73;;;7.93;;
14760;SDS011;7472;45.396;5.272;2023-04-03T14:28:12;10.55;;;9.20;;
14760;SDS011;7472;45.396;5.272;2023-04-03T14:30:40;8.93;;;8.13;;
14760;SDS011;7472;45.396;5.272;2023-04-03T14:33:09;8.05;;;7.25;;
14760;SDS011;7472;45.396;5.272;2023-04-03T14:35:36;8.57;;;7.78;;
14760;SDS011;7472;45.396;5.272;2023-04-03T14:38:05;7.82;;;7.03;;
14760;SDS011;7472;45.396;5.272;2023-04-03T14:40:32;8.35;;;7.65;;
14760;SDS011;7472;45.396;5.272;2023-04-03T14:43:01;8.18;;;7.32;;
14760;SDS011;7472;45.396;5.272;2023-04-03T14:45:28;7.72;;;6.93;;
14760;SDS011;7472;45.396;5.272;2023-04-03T14:47:56;8.25;;;7.45;;
14760;SDS011;7472;45.396;5.272;2023-04-03T14:50:24;7.90;;;7.20;;
14760;SDS011;7472;45.396;5.272;2023-04-03T14:52:53;8.13;;;7.32;;
14760;SDS011;7472;45.396;5.272;2023-04-03T14:55:21;8.75;;;7.47;;
14760;SDS011;7472;45.396;5.272;2023-04-03T14:57:49;7.30;;;6.60;;
14760;SDS011;7472;45.396;5.272;2023-04-03T15:00:20;6.38;;;4.85;;
14760;SDS011;7472;45.396;5.272;2023-04-03T15:02:47;7.82;;;6.30;;
14760;SDS011;7472;45.396;5.272;2023-04-03T15:05:15;7.60;;;6.70;;
14760;SDS011;7472;45.396;5.272;2023-04-03T15:07:45;6.75;;;6.05;;
14760;SDS011;7472;45.396;5.272;2023-04-03T15:10:15;10.15;;;8.30;;
14760;SDS011;7472;45.396;5.272;2023-04-03T15:12:43;8.10;;;7.35;;
14760;SDS011;7472;45.396;5.272;2023-04-03T15:15:11;8.77;;;7.95;;
14760;SDS011;7472;45.396;5.272;2023-04-03T15:17:40;6.53;;;5.70;;
14760;SDS011;7472;45.396;5.272;2023-04-03T15:20:11;10.35;;;7.13;;